createdAt,value
2018-03-29T00:00:58.410Z,0.00
2018-03-29T00:01:58.388Z,0.00
2018-03-29T00:02:58.363Z,0.00
2018-03-29T00:03:58.345Z,0.00
2018-03-29T00:04:58.322Z,0.00
2018-03-29T00:05:58.300Z,0.00
2018-03-29T00:06:58.283Z,0.00
2018-03-29T00:07:58.253Z,0.00
2018-03-29T00:08:58.233Z,0.00
2018-03-29T00:09:58.211Z,0.00
2018-03-29T00:10:58.189Z,0.00
2018-03-29T00:11:58.169Z,0.00
2018-03-29T00:12:58.147Z,0.00
2018-03-29T00:13:58.124Z,0.00
2018-03-29T00:14:58.104Z,0.00
2018-03-29T00:15:58.083Z,0.00
2018-03-29T00:16:58.064Z,0.00
2018-03-29T00:17:58.041Z,0.00
2018-03-29T00:18:58.021Z,0.00
2018-03-29T00:19:58.006Z,0.00
2018-03-29T00:20:57.973Z,0.00
2018-03-29T00:21:57.949Z,0.00
2018-03-29T00:22:57.928Z,0.00
2018-03-29T00:23:57.908Z,0.00
2018-03-29T00:24:57.886Z,0.00
2018-03-29T00:25:57.860Z,0.00
2018-03-29T00:26:57.844Z,0.00
2018-03-29T00:27:57.822Z,0.00
2018-03-29T00:28:57.831Z,0.00
2018-03-29T00:29:57.785Z,0.00
2018-03-29T00:30:57.758Z,0.00
2018-03-29T00:31:57.734Z,0.00
2018-03-29T00:32:57.716Z,0.00
2018-03-29T00:33:57.693Z,0.00
2018-03-29T00:34:57.667Z,0.00
2018-03-29T00:35:57.647Z,0.00
2018-03-29T00:36:57.628Z,0.00
2018-03-29T00:37:57.605Z,0.00
2018-03-29T00:38:57.584Z,0.00
2018-03-29T00:39:57.567Z,0.00
2018-03-29T00:40:57.538Z,0.00
2018-03-29T00:41:57.529Z,0.00
2018-03-29T00:42:57.500Z,0.00
2018-03-29T00:43:57.473Z,0.00
2018-03-29T00:44:57.453Z,0.00
2018-03-29T00:45:57.434Z,0.00
2018-03-29T00:46:57.458Z,0.00
2018-03-29T00:47:57.493Z,0.00
2018-03-29T00:48:57.371Z,0.00
2018-03-29T00:49:57.341Z,0.00
2018-03-29T00:50:57.339Z,0.00
2018-03-29T00:51:57.300Z,0.00
2018-03-29T00:52:57.284Z,0.00
2018-03-29T00:53:57.256Z,0.00
2018-03-29T00:54:57.241Z,0.00
2018-03-29T00:55:57.213Z,0.00
2018-03-29T00:56:57.341Z,0.00
2018-03-29T00:57:57.174Z,0.00
2018-03-29T00:58:57.154Z,0.00
2018-03-29T00:59:57.182Z,0.00
2018-03-29T01:00:57.107Z,0.00
2018-03-29T01:01:57.084Z,0.00
2018-03-29T01:02:57.067Z,0.00
2018-03-29T01:03:57.048Z,0.00
2018-03-29T01:04:57.028Z,0.00
2018-03-29T01:05:56.999Z,0.00
2018-03-29T01:06:56.987Z,0.00
2018-03-29T01:07:56.956Z,0.00
2018-03-29T01:08:56.936Z,0.00
2018-03-29T01:09:56.917Z,0.00
2018-03-29T01:10:56.894Z,0.00
2018-03-29T01:11:56.881Z,0.00
2018-03-29T01:12:57.021Z,0.00
2018-03-29T01:13:56.825Z,0.00
2018-03-29T01:14:56.804Z,0.00
2018-03-29T01:15:56.787Z,0.00
2018-03-29T01:16:56.765Z,0.00
2018-03-29T01:17:56.742Z,0.00
2018-03-29T01:18:56.722Z,0.00
2018-03-29T01:19:56.699Z,0.00
2018-03-29T01:20:56.674Z,0.00
2018-03-29T01:21:56.655Z,0.00
2018-03-29T01:22:56.636Z,0.00
2018-03-29T01:23:56.610Z,0.00
2018-03-29T01:24:56.591Z,0.00
2018-03-29T01:25:56.572Z,0.00
2018-03-29T01:26:56.542Z,0.00
2018-03-29T01:27:56.521Z,0.00
2018-03-29T01:28:56.500Z,0.00
2018-03-29T01:29:56.484Z,0.00
2018-03-29T01:30:56.461Z,0.00
2018-03-29T01:31:56.436Z,0.00
2018-03-29T01:32:56.414Z,0.00
2018-03-29T01:33:56.393Z,0.00
2018-03-29T01:34:56.376Z,0.00
2018-03-29T01:35:56.364Z,0.00
2018-03-29T01:36:56.336Z,0.00
2018-03-29T01:37:56.309Z,0.00
2018-03-29T01:38:56.287Z,0.00
2018-03-29T01:39:56.263Z,0.00
2018-03-29T01:40:56.244Z,0.00
2018-03-29T01:41:56.222Z,0.00
2018-03-29T01:42:56.199Z,0.00
2018-03-29T01:43:56.180Z,0.00
2018-03-29T01:44:56.157Z,0.00
2018-03-29T01:45:56.133Z,0.00
2018-03-29T01:46:56.114Z,0.00
2018-03-29T01:47:56.092Z,0.00
2018-03-29T01:48:56.069Z,0.00
2018-03-29T01:49:56.046Z,0.00
2018-03-29T01:50:56.027Z,0.00
2018-03-29T01:51:56.004Z,0.00
2018-03-29T01:52:55.985Z,0.00
2018-03-29T01:53:55.961Z,0.00
2018-03-29T01:54:55.941Z,0.00
2018-03-29T01:55:55.918Z,0.00
2018-03-29T01:56:55.907Z,0.00
2018-03-29T01:57:55.877Z,0.00
2018-03-29T01:58:55.854Z,0.00
2018-03-29T01:59:55.833Z,0.00
2018-03-29T02:00:55.835Z,0.00
2018-03-29T02:01:55.794Z,0.00
2018-03-29T02:02:55.772Z,0.00
2018-03-29T02:03:55.748Z,0.00
2018-03-29T02:04:55.736Z,0.00
2018-03-29T02:05:55.704Z,0.00
2018-03-29T02:06:55.682Z,0.00
2018-03-29T02:07:55.660Z,0.00
2018-03-29T02:08:55.648Z,0.00
2018-03-29T02:09:55.615Z,0.00
2018-03-29T02:10:55.597Z,0.00
2018-03-29T02:11:55.578Z,0.00
2018-03-29T02:12:55.553Z,0.00
2018-03-29T02:13:55.640Z,0.00
2018-03-29T02:14:55.509Z,0.00
2018-03-29T02:15:55.490Z,0.00
2018-03-29T02:16:55.470Z,0.00
2018-03-29T02:17:55.443Z,0.00
2018-03-29T02:18:55.424Z,0.00
2018-03-29T02:19:55.403Z,0.00
2018-03-29T02:20:55.378Z,0.00
2018-03-29T02:21:55.368Z,0.00
2018-03-29T02:22:55.339Z,0.00
2018-03-29T02:23:55.320Z,0.00
2018-03-29T02:24:55.295Z,0.00
2018-03-29T02:25:55.272Z,0.00
2018-03-29T02:26:55.254Z,0.00
2018-03-29T02:27:55.280Z,0.00
2018-03-29T02:28:55.219Z,0.00
2018-03-29T02:29:55.188Z,0.00
2018-03-29T02:30:55.169Z,0.00
2018-03-29T02:31:55.156Z,0.00
2018-03-29T02:32:55.124Z,0.00
2018-03-29T02:33:55.107Z,0.00
2018-03-29T02:34:55.080Z,0.00
2018-03-29T02:35:55.057Z,0.00
2018-03-29T02:36:55.034Z,0.00
2018-03-29T02:37:55.018Z,0.00
2018-03-29T02:38:54.994Z,0.00
2018-03-29T02:39:54.972Z,0.00
2018-03-29T02:40:54.955Z,0.00
2018-03-29T02:41:54.945Z,0.00
2018-03-29T02:42:54.908Z,0.00
2018-03-29T02:43:54.890Z,0.00
2018-03-29T02:44:54.868Z,0.00
2018-03-29T02:45:54.844Z,0.00
2018-03-29T02:46:54.825Z,0.00
2018-03-29T02:47:54.853Z,0.00
2018-03-29T02:48:54.782Z,0.00
2018-03-29T02:49:54.758Z,0.00
2018-03-29T02:50:54.741Z,0.00
2018-03-29T02:51:54.817Z,0.00
2018-03-29T02:52:54.696Z,0.00
2018-03-29T02:53:54.725Z,0.00
2018-03-29T02:54:54.658Z,0.00
2018-03-29T02:55:54.735Z,0.00
2018-03-29T02:56:54.611Z,0.00
2018-03-29T02:57:54.590Z,0.00
2018-03-29T02:58:54.569Z,0.00
2018-03-29T02:59:54.646Z,0.00
2018-03-29T03:00:54.523Z,0.00
2018-03-29T03:01:54.682Z,0.00
2018-03-29T03:02:54.483Z,0.00
2018-03-29T03:03:54.462Z,0.00
2018-03-29T03:04:54.442Z,0.00
2018-03-29T03:05:54.417Z,0.00
2018-03-29T03:06:54.401Z,0.00
2018-03-29T03:07:54.375Z,0.00
2018-03-29T03:08:54.354Z,0.00
2018-03-29T03:09:54.334Z,0.00
2018-03-29T03:10:54.319Z,0.00
2018-03-29T03:11:54.290Z,0.00
2018-03-29T03:12:54.273Z,0.00
2018-03-29T03:13:54.248Z,0.00
2018-03-29T03:14:54.227Z,0.00
2018-03-29T03:15:54.209Z,0.00
2018-03-29T03:16:54.183Z,0.00
2018-03-29T03:17:54.166Z,0.00
2018-03-29T03:18:54.139Z,0.00
2018-03-29T03:19:54.128Z,0.00
2018-03-29T03:20:54.103Z,0.00
2018-03-29T03:21:54.075Z,0.00
2018-03-29T03:22:54.060Z,0.00
2018-03-29T03:23:54.036Z,0.00
2018-03-29T03:24:54.016Z,0.00
2018-03-29T03:25:53.993Z,0.00
2018-03-29T03:26:53.974Z,0.00
2018-03-29T03:27:53.981Z,0.00
2018-03-29T03:28:53.934Z,0.00
2018-03-29T03:29:53.910Z,0.00
2018-03-29T03:30:53.889Z,0.00
2018-03-29T03:31:53.865Z,0.00
2018-03-29T03:32:53.849Z,0.00
2018-03-29T03:33:53.824Z,0.00
2018-03-29T03:34:53.803Z,0.00
2018-03-29T03:35:53.787Z,0.00
2018-03-29T03:36:53.762Z,0.00
2018-03-29T03:37:53.742Z,0.00
2018-03-29T03:38:53.718Z,0.00
2018-03-29T03:39:53.702Z,0.00
2018-03-29T03:40:53.684Z,0.00
2018-03-29T03:41:53.665Z,0.00
2018-03-29T03:42:53.635Z,0.00
2018-03-29T03:43:53.616Z,0.00
2018-03-29T03:44:53.592Z,0.00
2018-03-29T03:45:53.574Z,0.00
2018-03-29T03:46:53.554Z,0.00
2018-03-29T03:47:53.530Z,0.00
2018-03-29T03:48:53.507Z,0.00
2018-03-29T03:49:53.490Z,0.00
2018-03-29T03:50:53.466Z,0.00
2018-03-29T03:51:53.446Z,0.00
2018-03-29T03:52:53.425Z,0.00
2018-03-29T03:53:53.403Z,0.00
2018-03-29T03:54:53.439Z,0.00
2018-03-29T03:55:53.362Z,0.00
2018-03-29T03:56:53.341Z,0.00
2018-03-29T03:57:53.323Z,0.00
2018-03-29T03:58:53.296Z,0.00
2018-03-29T03:59:53.276Z,0.00
2018-03-29T04:00:53.253Z,0.00
2018-03-29T04:01:53.238Z,0.00
2018-03-29T04:02:53.211Z,0.00
2018-03-29T04:03:53.193Z,0.00
2018-03-29T04:04:53.173Z,0.00
2018-03-29T04:05:53.150Z,0.00
2018-03-29T04:06:53.128Z,0.00
2018-03-29T04:07:53.106Z,0.00
2018-03-29T04:08:53.084Z,0.00
2018-03-29T04:09:53.063Z,0.00
2018-03-29T04:10:53.044Z,0.00
2018-03-29T04:11:53.024Z,0.00
2018-03-29T04:12:53.011Z,0.00
2018-03-29T04:13:53.000Z,0.00
2018-03-29T04:14:52.958Z,0.00
2018-03-29T04:15:52.942Z,0.00
2018-03-29T04:16:52.917Z,0.00
2018-03-29T04:17:52.893Z,0.00
2018-03-29T04:18:52.879Z,0.00
2018-03-29T04:19:52.858Z,0.00
2018-03-29T04:20:52.834Z,0.00
2018-03-29T04:21:52.808Z,0.00
2018-03-29T04:22:52.792Z,0.00
2018-03-29T04:23:52.767Z,0.00
2018-03-29T04:24:52.751Z,0.00
2018-03-29T04:25:52.725Z,4.00
2018-03-29T04:26:52.706Z,0.00
2018-03-29T04:27:52.685Z,4.00
2018-03-29T04:28:52.662Z,4.00
2018-03-29T04:29:52.643Z,4.00
2018-03-29T04:30:52.624Z,4.00
2018-03-29T04:31:52.601Z,8.00
2018-03-29T04:32:52.578Z,12.00
2018-03-29T04:33:52.562Z,16.00
2018-03-29T04:34:52.546Z,20.00
2018-03-29T04:35:52.515Z,20.00
2018-03-29T04:36:52.493Z,20.00
2018-03-29T04:37:52.473Z,28.00
2018-03-29T04:38:52.450Z,20.00
2018-03-29T04:39:52.433Z,20.00
2018-03-29T04:40:52.416Z,16.00
2018-03-29T04:41:52.394Z,20.00
2018-03-29T04:42:52.373Z,20.00
2018-03-29T04:43:52.353Z,20.00
2018-03-29T04:44:52.326Z,20.00
2018-03-29T04:45:52.310Z,24.00
2018-03-29T04:46:52.286Z,24.00
2018-03-29T04:47:52.263Z,24.00
2018-03-29T04:48:52.244Z,24.00
2018-03-29T04:49:52.222Z,32.00
2018-03-29T04:50:52.199Z,28.00
2018-03-29T04:51:52.188Z,36.00
2018-03-29T04:52:52.164Z,36.00
2018-03-29T04:53:52.144Z,40.00
2018-03-29T04:54:52.116Z,44.00
2018-03-29T04:55:52.095Z,48.00
2018-03-29T04:56:52.075Z,44.00
2018-03-29T04:57:52.051Z,44.00
2018-03-29T04:58:52.033Z,48.00
2018-03-29T04:59:52.012Z,44.00
2018-03-29T05:00:51.990Z,40.00
2018-03-29T05:01:51.969Z,40.00
2018-03-29T05:02:51.953Z,48.00
2018-03-29T05:03:51.927Z,52.00
2018-03-29T05:04:51.903Z,60.00
2018-03-29T05:05:51.882Z,56.00
2018-03-29T05:06:51.861Z,88.00
2018-03-29T05:07:51.845Z,100.00
2018-03-29T05:08:51.818Z,96.00
2018-03-29T05:09:51.806Z,104.00
2018-03-29T05:10:51.779Z,116.00
2018-03-29T05:11:51.756Z,152.00
2018-03-29T05:12:51.737Z,152.00
2018-03-29T05:13:51.712Z,204.00
2018-03-29T05:14:51.691Z,256.00
2018-03-29T05:15:51.673Z,296.00
2018-03-29T05:16:51.652Z,328.00
2018-03-29T05:17:51.633Z,328.00
2018-03-29T05:18:51.612Z,344.00
2018-03-29T05:19:51.594Z,288.00
2018-03-29T05:20:51.565Z,224.00
2018-03-29T05:21:51.544Z,176.00
2018-03-29T05:22:51.524Z,168.00
2018-03-29T05:23:51.502Z,168.00
2018-03-29T05:24:51.482Z,184.00
2018-03-29T05:25:51.462Z,200.00
2018-03-29T05:26:51.447Z,220.00
2018-03-29T05:27:51.433Z,228.00
2018-03-29T05:28:51.447Z,220.00
2018-03-29T05:29:51.379Z,248.00
2018-03-29T05:30:51.456Z,296.00
2018-03-29T05:31:51.333Z,268.00
2018-03-29T05:32:51.310Z,244.00
2018-03-29T05:33:51.292Z,276.00
2018-03-29T05:34:51.370Z,344.00
2018-03-29T05:35:51.253Z,256.00
2018-03-29T05:36:51.228Z,252.00
2018-03-29T05:37:51.224Z,264.00
2018-03-29T05:38:51.233Z,292.00
2018-03-29T05:39:51.169Z,288.00
2018-03-29T05:40:51.205Z,316.00
2018-03-29T05:41:51.126Z,368.00
2018-03-29T05:42:51.104Z,376.00
2018-03-29T05:43:51.080Z,464.00
2018-03-29T05:44:51.143Z,568.00
2018-03-29T05:45:51.051Z,608.00
2018-03-29T05:46:51.074Z,780.00
2018-03-29T05:47:51.002Z,932.00
2018-03-29T05:48:51.067Z,840.00
2018-03-29T05:49:50.957Z,572.00
2018-03-29T05:50:50.939Z,724.00
2018-03-29T05:51:50.914Z,836.00
2018-03-29T05:52:50.893Z,1000.00
2018-03-29T05:53:50.873Z,1060.00
2018-03-29T05:54:50.879Z,1100.00
2018-03-29T05:55:50.826Z,1108.00
2018-03-29T05:56:50.860Z,1128.00
2018-03-29T05:57:50.785Z,1092.00
2018-03-29T05:58:50.764Z,896.00
2018-03-29T05:59:50.739Z,1000.00
2018-03-29T06:00:50.722Z,1112.00
2018-03-29T06:01:50.701Z,1072.00
2018-03-29T06:02:50.833Z,1048.00
2018-03-29T06:03:50.655Z,1060.00
2018-03-29T06:04:50.638Z,1140.00
2018-03-29T06:05:50.614Z,1160.00
2018-03-29T06:06:50.594Z,1176.00
2018-03-29T06:07:50.575Z,1068.00
2018-03-29T06:08:50.657Z,1124.00
2018-03-29T06:09:50.533Z,1192.00
2018-03-29T06:10:50.512Z,1164.00
2018-03-29T06:11:50.488Z,1288.00
2018-03-29T06:12:50.568Z,1136.00
2018-03-29T06:13:50.445Z,1044.00
2018-03-29T06:14:50.423Z,1120.00
2018-03-29T06:15:50.402Z,1008.00
2018-03-29T06:16:50.377Z,832.00
2018-03-29T06:17:50.439Z,764.00
2018-03-29T06:18:50.337Z,848.00
2018-03-29T06:19:50.319Z,992.00
2018-03-29T06:20:50.300Z,960.00
2018-03-29T06:21:50.274Z,756.00
2018-03-29T06:22:50.252Z,1008.00
2018-03-29T06:23:50.231Z,916.00
2018-03-29T06:24:50.210Z,928.00
2018-03-29T06:25:50.196Z,1108.00
2018-03-29T06:26:50.170Z,1304.00
2018-03-29T06:27:50.146Z,1264.00
2018-03-29T06:28:50.126Z,1288.00
2018-03-29T06:29:50.113Z,1396.00
2018-03-29T06:30:50.091Z,1420.00
2018-03-29T06:31:50.095Z,1332.00
2018-03-29T06:32:50.050Z,1088.00
2018-03-29T06:33:50.030Z,1184.00
2018-03-29T06:34:50.002Z,1164.00
2018-03-29T06:35:49.996Z,1304.00
2018-03-29T06:36:49.958Z,1340.00
2018-03-29T06:37:49.939Z,1336.00
2018-03-29T06:38:49.914Z,1328.00
2018-03-29T06:39:49.901Z,1428.00
2018-03-29T06:40:49.874Z,1400.00
2018-03-29T06:41:49.853Z,1468.00
2018-03-29T06:42:49.834Z,1432.00
2018-03-29T06:43:49.812Z,1388.00
2018-03-29T06:44:49.792Z,1348.00
2018-03-29T06:45:49.767Z,1364.00
2018-03-29T06:46:49.751Z,1312.00
2018-03-29T06:47:49.727Z,1312.00
2018-03-29T06:48:49.704Z,1376.00
2018-03-29T06:49:49.684Z,1544.00
2018-03-29T06:50:49.665Z,1332.00
2018-03-29T06:51:49.644Z,1352.00
2018-03-29T06:52:49.622Z,1296.00
2018-03-29T06:53:49.611Z,1372.00
2018-03-29T06:54:49.664Z,1256.00
2018-03-29T06:55:49.560Z,1212.00
2018-03-29T06:56:49.539Z,1224.00
2018-03-29T06:57:49.514Z,1296.00
2018-03-29T06:58:49.493Z,1428.00
2018-03-29T06:59:49.477Z,1696.00
2018-03-29T07:00:49.457Z,1512.00
2018-03-29T07:01:49.433Z,1268.00
2018-03-29T07:02:49.410Z,1404.00
2018-03-29T07:03:49.396Z,1496.00
2018-03-29T07:04:49.371Z,1600.00
2018-03-29T07:05:49.347Z,1672.00
2018-03-29T07:06:49.332Z,1536.00
2018-03-29T07:07:49.303Z,1648.00
2018-03-29T07:08:49.282Z,1776.00
2018-03-29T07:09:49.263Z,1576.00
2018-03-29T07:10:49.244Z,1656.00
2018-03-29T07:11:49.222Z,1480.00
2018-03-29T07:12:49.200Z,1648.00
2018-03-29T07:13:49.185Z,1756.00
2018-03-29T07:14:49.158Z,1652.00
2018-03-29T07:15:49.142Z,1508.00
2018-03-29T07:16:49.114Z,1556.00
2018-03-29T07:17:49.098Z,1528.00
2018-03-29T07:18:49.075Z,1492.00
2018-03-29T07:19:49.055Z,1508.00
2018-03-29T07:20:49.037Z,1532.00
2018-03-29T07:21:49.010Z,1512.00
2018-03-29T07:22:48.991Z,1824.00
2018-03-29T07:23:48.974Z,1908.00
2018-03-29T07:24:48.952Z,1868.00
2018-03-29T07:25:48.930Z,1988.00
2018-03-29T07:26:48.914Z,2068.00
2018-03-29T07:27:48.894Z,1888.00
2018-03-29T07:28:48.864Z,2068.00
2018-03-29T07:29:48.850Z,2048.00
2018-03-29T07:30:48.826Z,2044.00
2018-03-29T07:31:48.855Z,2308.00
2018-03-29T07:32:48.784Z,2396.00
2018-03-29T07:33:48.762Z,2212.00
2018-03-29T07:34:48.742Z,2260.00
2018-03-29T07:35:48.720Z,2560.00
2018-03-29T07:36:48.699Z,2876.00
2018-03-29T07:37:48.678Z,2912.00
2018-03-29T07:38:48.658Z,2820.00
2018-03-29T07:39:48.636Z,2704.00
2018-03-29T07:40:48.615Z,2976.00
2018-03-29T07:41:48.594Z,2792.00
2018-03-29T07:42:48.573Z,3184.00
2018-03-29T07:43:48.553Z,3148.00
2018-03-29T07:44:48.532Z,3036.00
2018-03-29T07:45:48.508Z,3196.00
2018-03-29T07:46:48.494Z,3140.00
2018-03-29T07:47:48.521Z,3232.00
2018-03-29T07:48:48.453Z,2820.00
2018-03-29T07:49:48.428Z,3040.00
2018-03-29T07:50:48.462Z,3036.00
2018-03-29T07:51:48.387Z,2644.00
2018-03-29T07:52:48.364Z,3000.00
2018-03-29T07:53:48.347Z,2880.00
2018-03-29T07:54:48.322Z,3252.00
2018-03-29T07:55:48.302Z,3136.00
2018-03-29T07:56:48.282Z,3020.00
2018-03-29T07:57:48.270Z,3308.00
2018-03-29T07:58:48.239Z,3296.00
2018-03-29T07:59:48.225Z,3032.00
2018-03-29T08:00:48.243Z,3036.00
2018-03-29T08:01:48.182Z,3124.00
2018-03-29T08:02:48.159Z,3404.00
2018-03-29T08:03:48.143Z,3756.00
2018-03-29T08:04:48.120Z,4016.00
2018-03-29T08:05:48.096Z,3824.00
2018-03-29T08:06:48.076Z,3908.00
2018-03-29T08:07:48.096Z,4816.00
2018-03-29T08:08:48.043Z,4776.00
2018-03-29T08:09:48.014Z,4320.00
2018-03-29T08:10:47.992Z,3988.00
2018-03-29T08:11:47.978Z,4560.00
2018-03-29T08:12:48.052Z,5596.00
2018-03-29T08:13:47.948Z,6884.00
2018-03-29T08:14:47.916Z,5156.00
2018-03-29T08:15:47.890Z,4744.00
2018-03-29T08:16:47.866Z,5292.00
2018-03-29T08:17:47.851Z,4824.00
2018-03-29T08:18:47.826Z,5240.00
2018-03-29T08:19:47.806Z,4600.00
2018-03-29T08:20:47.784Z,4384.00
2018-03-29T08:21:47.768Z,4220.00
2018-03-29T08:22:47.747Z,3916.00
2018-03-29T08:23:47.723Z,3760.00
2018-03-29T08:24:47.714Z,3844.00
2018-03-29T08:25:47.683Z,3532.00
2018-03-29T08:26:47.673Z,3416.00
2018-03-29T08:27:47.644Z,3752.00
2018-03-29T08:28:47.632Z,3664.00
2018-03-29T08:29:47.605Z,3460.00
2018-03-29T08:30:47.584Z,3732.00
2018-03-29T08:31:47.569Z,3620.00
2018-03-29T08:32:47.544Z,3872.00
2018-03-29T08:33:47.518Z,4568.00
2018-03-29T08:34:47.503Z,4396.00
2018-03-29T08:35:47.481Z,4172.00
2018-03-29T08:36:47.467Z,4456.00
2018-03-29T08:37:47.442Z,4728.00
2018-03-29T08:38:47.430Z,4300.00
2018-03-29T08:39:47.397Z,4004.00
2018-03-29T08:40:47.377Z,5304.00
2018-03-29T08:41:47.360Z,5824.00
2018-03-29T08:42:47.388Z,4788.00
2018-03-29T08:43:47.423Z,5524.00
2018-03-29T08:44:47.298Z,5512.00
2018-03-29T08:45:47.281Z,5200.00
2018-03-29T08:46:47.253Z,5792.00
2018-03-29T08:47:47.238Z,5996.00
2018-03-29T08:48:47.222Z,8704.00
2018-03-29T08:49:47.286Z,7948.00
2018-03-29T08:50:47.177Z,4836.00
2018-03-29T08:51:47.304Z,5848.00
2018-03-29T08:52:47.134Z,10764.00
2018-03-29T08:53:47.265Z,15756.00
2018-03-29T08:54:47.095Z,19808.00
2018-03-29T08:55:47.199Z,14444.00
2018-03-29T08:56:47.052Z,12032.00
2018-03-29T08:57:47.109Z,9724.00
2018-03-29T08:58:47.012Z,7704.00
2018-03-29T08:59:47.063Z,6944.00
2018-03-29T09:00:46.970Z,7032.00
2018-03-29T09:01:46.952Z,7632.00
2018-03-29T09:02:46.934Z,9260.00
2018-03-29T09:03:46.928Z,10604.00
2018-03-29T09:04:46.892Z,9836.00
2018-03-29T09:05:46.872Z,8364.00
2018-03-29T09:06:46.862Z,5988.00
2018-03-29T09:07:46.833Z,5484.00
2018-03-29T09:08:46.813Z,7956.00
2018-03-29T09:09:46.793Z,7420.00
2018-03-29T09:10:46.771Z,8180.00
2018-03-29T09:11:46.758Z,9896.00
2018-03-29T09:12:46.733Z,12140.00
2018-03-29T09:13:46.719Z,11676.00
2018-03-29T09:14:46.694Z,11684.00
2018-03-29T09:15:46.687Z,11824.00
2018-03-29T09:16:46.654Z,12600.00
2018-03-29T09:17:46.639Z,10664.00
2018-03-29T09:18:46.666Z,10408.00
2018-03-29T09:19:46.685Z,13064.00
2018-03-29T09:20:46.577Z,15432.00
2018-03-29T09:21:46.741Z,18368.00
2018-03-29T09:22:46.537Z,19264.00
2018-03-29T09:23:46.523Z,22272.00
2018-03-29T09:24:46.497Z,24864.00
2018-03-29T09:25:46.482Z,26688.00
2018-03-29T09:26:46.457Z,29984.00
2018-03-29T09:27:46.442Z,28256.00
2018-03-29T09:28:46.418Z,34080.00
2018-03-29T09:29:46.453Z,34432.00
2018-03-29T09:30:46.383Z,48800.00
2018-03-29T09:31:46.366Z,36800.00
2018-03-29T09:32:46.349Z,21120.00
2018-03-29T09:33:46.324Z,24128.00
2018-03-29T09:34:46.314Z,18336.00
2018-03-29T09:35:46.292Z,18784.00
2018-03-29T09:36:46.273Z,14836.00
2018-03-29T09:37:46.255Z,22176.00
2018-03-29T09:38:46.243Z,19008.00
2018-03-29T09:39:46.218Z,13136.00
2018-03-29T09:40:46.203Z,23648.00
2018-03-29T09:41:46.185Z,67552.00
2018-03-29T09:42:46.168Z,65056.00
2018-03-29T09:43:46.166Z,34240.00
2018-03-29T09:44:46.131Z,44544.00
2018-03-29T09:45:46.117Z,74208.00
2018-03-29T09:46:46.100Z,111712.00
2018-03-29T09:47:46.097Z,111392.00
2018-03-29T09:48:46.069Z,86336.00
2018-03-29T09:49:46.055Z,108832.00
2018-03-29T09:50:46.046Z,83040.00
2018-03-29T09:51:46.028Z,116736.00
2018-03-29T09:52:46.015Z,102848.00
2018-03-29T09:53:46.003Z,95840.00
2018-03-29T09:54:45.990Z,106528.00
2018-03-29T09:55:45.981Z,36384.00
2018-03-29T09:56:46.068Z,99520.00
2018-03-29T09:57:45.951Z,46208.00
2018-03-29T09:58:45.943Z,39968.00
2018-03-29T09:59:45.948Z,83008.00
2018-03-29T10:00:45.926Z,101088.00
2018-03-29T10:01:45.916Z,41344.00
2018-03-29T10:02:45.916Z,42496.00
2018-03-29T10:03:45.898Z,38752.00
2018-03-29T10:04:45.894Z,32416.00
2018-03-29T10:05:45.890Z,25248.00
2018-03-29T10:06:45.883Z,23904.00
2018-03-29T10:07:45.872Z,25792.00
2018-03-29T10:08:45.870Z,28000.00
2018-03-29T10:09:45.858Z,28288.00
2018-03-29T10:10:45.859Z,29920.00
2018-03-29T10:11:45.837Z,34336.00
2018-03-29T10:12:45.831Z,36736.00
2018-03-29T10:13:45.819Z,30272.00
2018-03-29T10:14:45.820Z,39488.00
2018-03-29T10:15:45.804Z,38048.00
2018-03-29T10:16:45.793Z,46208.00
2018-03-29T10:17:45.784Z,37376.00
2018-03-29T10:18:45.772Z,43168.00
2018-03-29T10:19:45.768Z,33920.00
2018-03-29T10:20:45.764Z,35360.00
2018-03-29T10:21:45.745Z,39200.00
2018-03-29T10:22:45.734Z,35168.00
2018-03-29T10:23:45.724Z,34720.00
2018-03-29T10:24:45.725Z,33216.00
2018-03-29T10:25:45.707Z,30144.00
2018-03-29T10:26:45.694Z,26432.00
2018-03-29T10:27:45.684Z,20640.00
2018-03-29T10:28:45.671Z,28192.00
2018-03-29T10:29:45.663Z,16252.00
2018-03-29T10:30:45.650Z,11816.00
2018-03-29T10:31:45.638Z,8388.00
2018-03-29T10:32:45.630Z,6540.00
2018-03-29T10:33:45.615Z,6308.00
2018-03-29T10:34:45.604Z,6832.00
2018-03-29T10:35:45.604Z,8568.00
2018-03-29T10:36:45.579Z,10428.00
2018-03-29T10:37:45.567Z,9824.00
2018-03-29T10:38:45.558Z,9776.00
2018-03-29T10:39:45.548Z,12848.00
2018-03-29T10:40:45.528Z,16616.00
2018-03-29T10:41:45.513Z,19072.00
2018-03-29T10:42:45.513Z,16916.00
2018-03-29T10:43:45.487Z,15132.00
2018-03-29T10:44:45.478Z,13872.00
2018-03-29T10:45:45.464Z,14532.00
2018-03-29T10:46:45.457Z,12844.00
2018-03-29T10:47:45.432Z,10568.00
2018-03-29T10:48:45.418Z,11904.00
2018-03-29T10:49:45.411Z,12220.00
2018-03-29T10:50:45.394Z,13728.00
2018-03-29T10:51:45.379Z,15064.00
2018-03-29T10:52:45.362Z,16352.00
2018-03-29T10:53:45.353Z,15408.00
2018-03-29T10:54:45.334Z,12392.00
2018-03-29T10:55:45.323Z,11216.00
2018-03-29T10:56:45.298Z,10716.00
2018-03-29T10:57:45.284Z,8960.00
2018-03-29T10:58:45.277Z,7920.00
2018-03-29T10:59:45.255Z,7828.00
2018-03-29T11:00:45.381Z,7032.00
2018-03-29T11:01:45.239Z,6400.00
2018-03-29T11:02:45.221Z,6152.00
2018-03-29T11:03:45.200Z,5808.00
2018-03-29T11:04:45.180Z,5040.00
2018-03-29T11:05:45.164Z,4648.00
2018-03-29T11:06:45.149Z,4140.00
2018-03-29T11:07:45.275Z,3968.00
2018-03-29T11:08:45.224Z,4188.00
2018-03-29T11:09:45.100Z,5236.00
2018-03-29T11:10:45.087Z,6572.00
2018-03-29T11:11:45.073Z,6496.00
2018-03-29T11:12:45.050Z,4736.00
2018-03-29T11:13:45.030Z,4264.00
2018-03-29T11:14:45.110Z,4184.00
2018-03-29T11:15:45.005Z,4192.00
2018-03-29T11:16:44.983Z,4136.00
2018-03-29T11:17:44.963Z,4320.00
2018-03-29T11:18:45.018Z,4976.00
2018-03-29T11:19:44.927Z,5376.00
2018-03-29T11:20:44.917Z,5448.00
2018-03-29T11:21:44.890Z,4648.00
2018-03-29T11:22:44.887Z,3768.00
2018-03-29T11:23:44.860Z,3620.00
2018-03-29T11:24:44.843Z,3820.00
2018-03-29T11:25:44.828Z,3788.00
2018-03-29T11:26:44.804Z,3808.00
2018-03-29T11:27:44.785Z,3728.00
2018-03-29T11:28:44.922Z,3956.00
2018-03-29T11:29:44.748Z,4332.00
2018-03-29T11:30:44.736Z,4104.00
2018-03-29T11:31:44.713Z,3572.00
2018-03-29T11:32:44.696Z,3012.00
2018-03-29T11:33:44.685Z,3652.00
2018-03-29T11:34:44.659Z,6156.00
2018-03-29T11:35:44.645Z,8124.00
2018-03-29T11:36:44.641Z,7320.00
2018-03-29T11:37:44.601Z,5792.00
2018-03-29T11:38:44.598Z,5556.00
2018-03-29T11:39:44.567Z,5352.00
2018-03-29T11:40:44.549Z,5172.00
2018-03-29T11:41:44.536Z,4916.00
2018-03-29T11:42:44.601Z,4296.00
2018-03-29T11:43:44.493Z,3808.00
2018-03-29T11:44:44.474Z,4380.00
2018-03-29T11:45:44.454Z,4248.00
2018-03-29T11:46:44.439Z,3784.00
2018-03-29T11:47:44.424Z,3832.00
2018-03-29T11:48:44.397Z,3584.00
2018-03-29T11:49:44.392Z,3688.00
2018-03-29T11:50:44.366Z,3772.00
2018-03-29T11:51:44.351Z,5108.00
2018-03-29T11:52:44.326Z,7372.00
2018-03-29T11:53:44.310Z,10496.00
2018-03-29T11:54:44.288Z,15944.00
2018-03-29T11:55:44.274Z,16356.00
2018-03-29T11:56:44.254Z,15152.00
2018-03-29T11:57:44.234Z,15776.00
2018-03-29T11:58:44.215Z,18272.00
2018-03-29T11:59:44.201Z,14888.00
2018-03-29T12:00:44.177Z,15184.00
2018-03-29T12:01:44.164Z,14588.00
2018-03-29T12:02:44.147Z,12544.00
2018-03-29T12:03:44.124Z,10212.00
2018-03-29T12:04:44.107Z,9512.00
2018-03-29T12:05:44.096Z,9360.00
2018-03-29T12:06:44.076Z,10128.00
2018-03-29T12:07:44.056Z,12344.00
2018-03-29T12:08:44.033Z,13976.00
2018-03-29T12:09:44.027Z,13580.00
2018-03-29T12:10:44.000Z,12960.00
2018-03-29T12:11:43.980Z,13636.00
2018-03-29T12:12:43.966Z,14612.00
2018-03-29T12:13:43.991Z,15228.00
2018-03-29T12:14:43.934Z,15348.00
2018-03-29T12:15:43.913Z,14740.00
2018-03-29T12:16:43.894Z,13660.00
2018-03-29T12:17:43.878Z,12692.00
2018-03-29T12:18:43.862Z,11412.00
2018-03-29T12:19:43.843Z,10444.00
2018-03-29T12:20:43.831Z,9608.00
2018-03-29T12:21:43.805Z,8292.00
2018-03-29T12:22:43.790Z,6736.00
2018-03-29T12:23:43.775Z,5916.00
2018-03-29T12:24:43.755Z,4984.00
2018-03-29T12:25:43.736Z,4176.00
2018-03-29T12:26:43.719Z,3412.00
2018-03-29T12:27:43.699Z,2868.00
2018-03-29T12:28:43.682Z,3076.00
2018-03-29T12:29:43.669Z,3408.00
2018-03-29T12:30:43.651Z,3268.00